sensor_id;sensor_type;location;lat;lon;timestamp;pressure;altitude;pressure_sealevel;temperature;humidity
28927;BME280;16038;47.692;9.400;2024-02-21T00:01:16;97707.88;;;0.87;100.00
28927;BME280;16038;47.692;9.400;2024-02-21T00:03:42;97708.97;;;0.81;100.00
28927;BME280;16038;47.692;9.400;2024-02-21T00:06:07;97713.03;;;0.78;100.00
28927;BME280;16038;47.692;9.400;2024-02-21T00:08:32;97716.00;;;0.76;100.00
28927;BME280;16038;47.692;9.400;2024-02-21T00:10:58;97718.72;;;0.76;100.00
28927;BME280;16038;47.692;9.400;2024-02-21T00:13:23;97718.41;;;0.83;100.00
28927;BME280;16038;47.692;9.400;2024-02-21T00:15:49;97721.03;;;0.93;100.00
28927;BME280;16038;47.692;9.400;2024-02-21T00:18:15;97712.69;;;0.90;100.00
28927;BME280;16038;47.692;9.400;2024-02-21T00:20:40;97714.03;;;0.92;100.00
28927;BME280;16038;47.692;9.400;2024-02-21T00:23:06;97719.47;;;0.87;100.00
28927;BME280;16038;47.692;9.400;2024-02-21T00:25:31;97704.66;;;0.85;100.00
28927;BME280;16038;47.692;9.400;2024-02-21T00:27:56;97715.19;;;0.81;100.00
28927;BME280;16038;47.692;9.400;2024-02-21T00:30:22;97713.84;;;0.79;100.00
28927;BME280;16038;47.692;9.400;2024-02-21T00:32:47;97711.41;;;0.77;100.00
28927;BME280;16038;47.692;9.400;2024-02-21T00:35:14;97708.75;;;0.72;100.00
28927;BME280;16038;47.692;9.400;2024-02-21T00:37:39;97714.97;;;0.72;100.00
28927;BME280;16038;47.692;9.400;2024-02-21T00:40:05;97709.19;;;0.89;100.00
28927;BME280;16038;47.692;9.400;2024-02-21T00:42:31;97706.47;;;0.94;100.00
28927;BME280;16038;47.692;9.400;2024-02-21T00:44:56;97700.28;;;0.94;100.00
28927;BME280;16038;47.692;9.400;2024-02-21T00:47:21;97696.81;;;0.88;100.00
28927;BME280;16038;47.692;9.400;2024-02-21T00:49:47;97694.41;;;0.87;100.00
28927;BME280;16038;47.692;9.400;2024-02-21T00:52:12;97691.34;;;0.99;100.00
28927;BME280;16038;47.692;9.400;2024-02-21T00:54:37;97691.75;;;1.16;100.00
28927;BME280;16038;47.692;9.400;2024-02-21T00:57:03;97690.59;;;1.27;100.00
28927;BME280;16038;47.692;9.400;2024-02-21T00:59:28;97697.06;;;1.31;100.00
28927;BME280;16038;47.692;9.400;2024-02-21T01:01:54;97687.53;;;1.39;100.00
28927;BME280;16038;47.692;9.400;2024-02-21T01:04:19;97681.88;;;1.41;100.00
28927;BME280;16038;47.692;9.400;2024-02-21T01:06:44;97680.81;;;1.37;100.00
28927;BME280;16038;47.692;9.400;2024-02-21T01:09:13;97677.31;;;1.36;100.00
28927;BME280;16038;47.692;9.400;2024-02-21T01:11:38;97674.59;;;1.36;100.00
28927;BME280;16038;47.692;9.400;2024-02-21T01:14:03;97672.44;;;1.38;100.00
28927;BME280;16038;47.692;9.400;2024-02-21T01:16:29;97668.88;;;1.43;100.00
28927;BME280;16038;47.692;9.400;2024-02-21T01:18:54;97658.69;;;1.34;100.00
28927;BME280;16038;47.692;9.400;2024-02-21T01:21:20;97658.69;;;1.34;100.00
28927;BME280;16038;47.692;9.400;2024-02-21T01:23:45;97658.97;;;1.33;100.00
28927;BME280;16038;47.692;9.400;2024-02-21T01:26:10;97653.06;;;1.31;100.00
28927;BME280;16038;47.692;9.400;2024-02-21T01:28:39;97645.19;;;1.34;100.00
28927;BME280;16038;47.692;9.400;2024-02-21T01:31:04;97646.28;;;1.33;100.00
28927;BME280;16038;47.692;9.400;2024-02-21T01:33:30;97641.41;;;1.06;100.00
28927;BME280;16038;47.692;9.400;2024-02-21T01:36:01;97646.88;;;0.91;100.00
28927;BME280;16038;47.692;9.400;2024-02-21T01:38:27;97647.19;;;0.84;100.00
28927;BME280;16038;47.692;9.400;2024-02-21T01:40:54;97644.44;;;0.94;100.00
28927;BME280;16038;47.692;9.400;2024-02-21T01:43:20;97639.44;;;1.12;100.00
28927;BME280;16038;47.692;9.400;2024-02-21T01:45:48;97636.38;;;1.24;100.00
28927;BME280;16038;47.692;9.400;2024-02-21T01:48:14;97646.09;;;1.25;100.00
28927;BME280;16038;47.692;9.400;2024-02-21T01:50:40;97639.03;;;1.29;100.00
28927;BME280;16038;47.692;9.400;2024-02-21T01:53:06;97657.97;;;1.24;100.00
28927;BME280;16038;47.692;9.400;2024-02-21T01:55:32;97652.56;;;1.24;100.00
28927;BME280;16038;47.692;9.400;2024-02-21T01:57:58;97652.53;;;1.29;100.00
28927;BME280;16038;47.692;9.400;2024-02-21T02:00:24;97646.56;;;1.32;100.00
28927;BME280;16038;47.692;9.400;2024-02-21T02:02:50;97644.88;;;1.41;100.00
28927;BME280;16038;47.692;9.400;2024-02-21T02:05:16;97633.22;;;1.46;100.00
28927;BME280;16038;47.692;9.400;2024-02-21T02:07:43;97629.19;;;1.43;100.00
28927;BME280;16038;47.692;9.400;2024-02-21T02:10:09;97635.06;;;1.50;100.00
28927;BME280;16038;47.692;9.400;2024-02-21T02:12:35;97623.34;;;1.60;100.00
28927;BME280;16038;47.692;9.400;2024-02-21T02:15:02;97612.44;;;1.46;100.00
28927;BME280;16038;47.692;9.400;2024-02-21T02:17:31;97610.22;;;1.24;100.00
28927;BME280;16038;47.692;9.400;2024-02-21T02:19:57;97605.59;;;0.95;100.00
28927;BME280;16038;47.692;9.400;2024-02-21T02:22:28;97588.19;;;0.78;100.00
28927;BME280;16038;47.692;9.400;2024-02-21T02:24:53;97593.91;;;0.71;100.00
28927;BME280;16038;47.692;9.400;2024-02-21T02:27:19;97588.44;;;0.81;100.00
28927;BME280;16038;47.692;9.400;2024-02-21T02:29:44;97582.91;;;0.97;100.00
28927;BME280;16038;47.692;9.400;2024-02-21T02:32:10;97577.97;;;1.09;100.00
28927;BME280;16038;47.692;9.400;2024-02-21T02:34:35;97575.19;;;1.19;100.00
28927;BME280;16038;47.692;9.400;2024-02-21T02:37:00;97582.88;;;1.31;100.00
28927;BME280;16038;47.692;9.400;2024-02-21T02:39:26;97579.91;;;1.32;100.00
28927;BME280;16038;47.692;9.400;2024-02-21T02:41:52;97578.19;;;1.42;100.00
28927;BME280;16038;47.692;9.400;2024-02-21T02:44:17;97574.63;;;1.46;100.00
28927;BME280;16038;47.692;9.400;2024-02-21T02:46:42;97574.91;;;1.45;100.00
28927;BME280;16038;47.692;9.400;2024-02-21T02:49:08;97568.13;;;1.47;100.00
28927;BME280;16038;47.692;9.400;2024-02-21T02:51:34;97569.81;;;1.43;100.00
28927;BME280;16038;47.692;9.400;2024-02-21T02:53:59;97567.66;;;1.40;100.00
28927;BME280;16038;47.692;9.400;2024-02-21T02:56:24;97562.25;;;1.40;100.00
28927;BME280;16038;47.692;9.400;2024-02-21T02:58:50;97564.97;;;1.40;100.00
28927;BME280;16038;47.692;9.400;2024-02-21T03:01:15;97561.75;;;1.38;100.00
28927;BME280;16038;47.692;9.400;2024-02-21T03:03:41;97559.56;;;1.40;100.00
28927;BME280;16038;47.692;9.400;2024-02-21T03:06:06;97550.91;;;1.43;100.00
28927;BME280;16038;47.692;9.400;2024-02-21T03:08:31;97551.19;;;1.42;100.00
28927;BME280;16038;47.692;9.400;2024-02-21T03:10:58;97543.66;;;1.39;100.00
28927;BME280;16038;47.692;9.400;2024-02-21T03:13:25;97551.75;;;1.39;100.00
28927;BME280;16038;47.692;9.400;2024-02-21T03:15:50;97546.34;;;1.39;100.00
28927;BME280;16038;47.692;9.400;2024-02-21T03:18:16;97545.38;;;1.29;100.00
28927;BME280;16038;47.692;9.400;2024-02-21T03:20:41;97553.41;;;1.34;100.00
28927;BME280;16038;47.692;9.400;2024-02-21T03:23:07;97542.81;;;1.43;100.00
28927;BME280;16038;47.692;9.400;2024-02-21T03:25:32;97536.00;;;1.46;100.00
28927;BME280;16038;47.692;9.400;2024-02-21T03:27:57;97530.97;;;1.39;100.00
28927;BME280;16038;47.692;9.400;2024-02-21T03:30:23;97544.19;;;1.41;100.00
28927;BME280;16038;47.692;9.400;2024-02-21T03:32:48;97530.34;;;1.47;100.00
28927;BME280;16038;47.692;9.400;2024-02-21T03:35:14;97521.03;;;1.34;100.00
28927;BME280;16038;47.692;9.400;2024-02-21T03:37:39;97519.13;;;1.35;100.00
28927;BME280;16038;47.692;9.400;2024-02-21T03:40:09;97506.56;;;1.25;100.00
28927;BME280;16038;47.692;9.400;2024-02-21T03:42:34;97508.47;;;0.95;100.00
28927;BME280;16038;47.692;9.400;2024-02-21T03:45:00;97498.75;;;0.65;100.00
28927;BME280;16038;47.692;9.400;2024-02-21T03:47:25;97499.59;;;0.61;100.00
28927;BME280;16038;47.692;9.400;2024-02-21T03:49:50;97497.22;;;0.54;100.00
28927;BME280;16038;47.692;9.400;2024-02-21T03:52:16;97496.66;;;0.57;100.00
28927;BME280;16038;47.692;9.400;2024-02-21T03:54:42;97503.69;;;0.58;100.00
28927;BME280;16038;47.692;9.400;2024-02-21T03:57:08;97491.59;;;0.50;100.00
28927;BME280;16038;47.692;9.400;2024-02-21T03:59:33;97495.91;;;0.51;100.00
28927;BME280;16038;47.692;9.400;2024-02-21T04:01:59;97494.25;;;0.55;100.00
28927;BME280;16038;47.692;9.400;2024-02-21T04:04:25;97495.00;;;0.61;100.00
28927;BME280;16038;47.692;9.400;2024-02-21T04:06:51;97494.72;;;0.63;100.00
28927;BME280;16038;47.692;9.400;2024-02-21T04:09:17;97498.25;;;0.63;100.00
28927;BME280;16038;47.692;9.400;2024-02-21T04:11:42;97497.44;;;0.63;100.00
28927;BME280;16038;47.692;9.400;2024-02-21T04:14:08;97497.09;;;0.69;100.00
28927;BME280;16038;47.692;9.400;2024-02-21T04:16:34;97481.91;;;0.79;100.00
28927;BME280;16038;47.692;9.400;2024-02-21T04:19:00;97474.06;;;0.82;100.00
28927;BME280;16038;47.692;9.400;2024-02-21T04:21:26;97475.94;;;0.87;100.00
28927;BME280;16038;47.692;9.400;2024-02-21T04:23:51;97472.47;;;0.81;100.00
28927;BME280;16038;47.692;9.400;2024-02-21T04:26:17;97466.03;;;0.77;100.00
28927;BME280;16038;47.692;9.400;2024-02-21T04:28:44;97458.44;;;0.79;100.00
28927;BME280;16038;47.692;9.400;2024-02-21T04:31:10;97450.06;;;0.81;100.00
28927;BME280;16038;47.692;9.400;2024-02-21T04:33:35;97451.19;;;0.80;100.00
28927;BME280;16038;47.692;9.400;2024-02-21T04:36:01;97444.88;;;0.89;100.00
28927;BME280;16038;47.692;9.400;2024-02-21T04:38:27;97444.06;;;0.89;100.00
28927;BME280;16038;47.692;9.400;2024-02-21T04:40:54;97431.84;;;0.97;100.00
28927;BME280;16038;47.692;9.400;2024-02-21T04:43:20;97435.88;;;0.99;100.00
28927;BME280;16038;47.692;9.400;2024-02-21T04:45:45;97432.09;;;1.00;100.00
28927;BME280;16038;47.692;9.400;2024-02-21T04:48:11;97427.25;;;0.97;100.00
28927;BME280;16038;47.692;9.400;2024-02-21T04:50:36;97439.59;;;1.03;100.00
28927;BME280;16038;47.692;9.400;2024-02-21T04:53:02;97443.41;;;1.26;100.00
28927;BME280;16038;47.692;9.400;2024-02-21T04:55:27;97434.94;;;1.33;100.00
28927;BME280;16038;47.692;9.400;2024-02-21T04:57:53;97425.25;;;1.32;100.00
28927;BME280;16038;47.692;9.400;2024-02-21T05:00:19;97429.63;;;1.28;100.00
28927;BME280;16038;47.692;9.400;2024-02-21T05:02:45;97433.13;;;1.28;100.00
28927;BME280;16038;47.692;9.400;2024-02-21T05:05:10;97443.25;;;1.37;100.00
28927;BME280;16038;47.692;9.400;2024-02-21T05:07:35;97428.34;;;1.44;100.00
28927;BME280;16038;47.692;9.400;2024-02-21T05:10:01;97420.81;;;1.41;100.00
28927;BME280;16038;47.692;9.400;2024-02-21T05:12:26;97419.19;;;1.40;100.00
28927;BME280;16038;47.692;9.400;2024-02-21T05:14:52;97409.44;;;1.44;100.00
28927;BME280;16038;47.692;9.400;2024-02-21T05:17:17;97395.34;;;1.47;100.00
28927;BME280;16038;47.692;9.400;2024-02-21T05:19:42;97392.00;;;1.56;100.00
28927;BME280;16038;47.692;9.400;2024-02-21T05:22:08;97385.16;;;1.63;100.00
28927;BME280;16038;47.692;9.400;2024-02-21T05:24:33;97378.38;;;1.66;100.00
28927;BME280;16038;47.692;9.400;2024-02-21T05:26:59;97368.94;;;1.63;100.00
28927;BME280;16038;47.692;9.400;2024-02-21T05:29:24;97371.88;;;1.67;100.00
28927;BME280;16038;47.692;9.400;2024-02-21T05:34:19;97378.72;;;1.78;100.00
28927;BME280;16038;47.692;9.400;2024-02-21T05:36:45;97387.53;;;2.03;100.00
28927;BME280;16038;47.692;9.400;2024-02-21T05:39:11;97386.69;;;2.07;100.00
28927;BME280;16038;47.692;9.400;2024-02-21T05:41:36;97387.69;;;2.12;100.00
28927;BME280;16038;47.692;9.400;2024-02-21T05:44:02;97385.47;;;2.14;100.00
28927;BME280;16038;47.692;9.400;2024-02-21T05:46:28;97380.38;;;2.12;100.00
28927;BME280;16038;47.692;9.400;2024-02-21T05:48:53;97364.22;;;2.07;100.00
28927;BME280;16038;47.692;9.400;2024-02-21T05:51:19;97361.50;;;1.93;100.00
28927;BME280;16038;47.692;9.400;2024-02-21T05:53:44;97356.03;;;1.79;100.00
28927;BME280;16038;47.692;9.400;2024-02-21T05:56:10;97357.56;;;1.66;100.00
28927;BME280;16038;47.692;9.400;2024-02-21T05:58:37;97368.50;;;1.56;100.00
28927;BME280;16038;47.692;9.400;2024-02-21T06:01:02;97363.19;;;1.51;100.00
28927;BME280;16038;47.692;9.400;2024-02-21T06:03:29;97357.63;;;1.42;100.00
28927;BME280;16038;47.692;9.400;2024-02-21T06:05:55;97350.91;;;1.40;100.00
28927;BME280;16038;47.692;9.400;2024-02-21T06:08:20;97346.53;;;1.44;100.00
28927;BME280;16038;47.692;9.400;2024-02-21T06:10:46;97332.75;;;1.45;100.00
28927;BME280;16038;47.692;9.400;2024-02-21T06:13:12;97337.78;;;1.52;100.00
28927;BME280;16038;47.692;9.400;2024-02-21T06:15:37;97328.28;;;1.55;100.00
28927;BME280;16038;47.692;9.400;2024-02-21T06:18:03;97334.19;;;1.57;100.00
28927;BME280;16038;47.692;9.400;2024-02-21T06:20:29;97338.44;;;1.63;100.00
28927;BME280;16038;47.692;9.400;2024-02-21T06:22:54;97351.34;;;1.85;100.00
28927;BME280;16038;47.692;9.400;2024-02-21T06:25:19;97348.03;;;2.07;100.00
28927;BME280;16038;47.692;9.400;2024-02-21T06:27:45;97345.28;;;2.26;100.00
28927;BME280;16038;47.692;9.400;2024-02-21T06:30:11;97332.19;;;2.33;100.00
28927;BME280;16038;47.692;9.400;2024-02-21T06:32:36;97325.06;;;2.23;100.00
28927;BME280;16038;47.692;9.400;2024-02-21T06:35:02;97329.78;;;2.32;100.00
28927;BME280;16038;47.692;9.400;2024-02-21T06:37:27;97323.28;;;2.46;100.00
28927;BME280;16038;47.692;9.400;2024-02-21T06:39:53;97333.63;;;2.58;100.00
28927;BME280;16038;47.692;9.400;2024-02-21T06:42:18;97330.53;;;2.65;100.00
28927;BME280;16038;47.692;9.400;2024-02-21T06:44:44;97333.63;;;2.58;100.00
28927;BME280;16038;47.692;9.400;2024-02-21T06:47:10;97329.31;;;2.57;100.00
28927;BME280;16038;47.692;9.400;2024-02-21T06:49:35;97334.31;;;2.50;100.00
28927;BME280;16038;47.692;9.400;2024-02-21T06:52:04;97338.53;;;2.56;100.00
28927;BME280;16038;47.692;9.400;2024-02-21T06:54:30;97330.63;;;2.60;100.00
28927;BME280;16038;47.692;9.400;2024-02-21T06:56:55;97324.72;;;2.72;100.00
28927;BME280;16038;47.692;9.400;2024-02-21T06:59:21;97321.19;;;2.99;100.00
28927;BME280;16038;47.692;9.400;2024-02-21T07:01:48;97319.81;;;3.15;100.00
28927;BME280;16038;47.692;9.400;2024-02-21T07:04:13;97317.88;;;3.30;100.00
28927;BME280;16038;47.692;9.400;2024-02-21T07:06:40;97332.50;;;3.65;100.00
28927;BME280;16038;47.692;9.400;2024-02-21T07:09:05;97326.06;;;4.20;100.00
28927;BME280;16038;47.692;9.400;2024-02-21T07:11:30;97314.22;;;4.78;100.00
28927;BME280;16038;47.692;9.400;2024-02-21T07:13:56;97320.25;;;4.67;100.00
28927;BME280;16038;47.692;9.400;2024-02-21T07:16:21;97320.28;;;5.33;100.00
28927;BME280;16038;47.692;9.400;2024-02-21T07:18:46;97321.44;;;5.93;100.00
28927;BME280;16038;47.692;9.400;2024-02-21T07:21:12;97324.09;;;6.54;100.00
28927;BME280;16038;47.692;9.400;2024-02-21T07:23:42;97323.00;;;6.94;100.00
28927;BME280;16038;47.692;9.400;2024-02-21T07:26:08;97316.50;;;7.79;100.00
28927;BME280;16038;47.692;9.400;2024-02-21T07:28:33;97323.44;;;8.64;100.00
28927;BME280;16038;47.692;9.400;2024-02-21T07:30:59;97328.25;;;9.41;100.00
28927;BME280;16038;47.692;9.400;2024-02-21T07:33:25;97319.22;;;10.06;100.00
28927;BME280;16038;47.692;9.400;2024-02-21T07:35:50;97322.06;;;10.38;92.67
28927;BME280;16038;47.692;9.400;2024-02-21T07:38:16;97329.13;;;10.39;99.87
28927;BME280;16038;47.692;9.400;2024-02-21T07:40:46;97328.94;;;10.31;94.81
28927;BME280;16038;47.692;9.400;2024-02-21T07:43:11;97334.94;;;9.68;99.84
28927;BME280;16038;47.692;9.400;2024-02-21T07:45:37;97324.06;;;9.07;100.00
28927;BME280;16038;47.692;9.400;2024-02-21T07:48:07;97332.13;;;8.91;100.00
28927;BME280;16038;47.692;9.400;2024-02-21T07:50:33;97324.25;;;8.65;100.00
28927;BME280;16038;47.692;9.400;2024-02-21T07:52:58;97310.47;;;8.28;100.00
28927;BME280;16038;47.692;9.400;2024-02-21T07:55:23;97313.66;;;8.63;100.00
28927;BME280;16038;47.692;9.400;2024-02-21T07:57:49;97313.47;;;9.17;100.00
28927;BME280;16038;47.692;9.400;2024-02-21T08:00:15;97319.13;;;9.49;100.00
28927;BME280;16038;47.692;9.400;2024-02-21T08:02:48;97318.59;;;9.44;100.00
28927;BME280;16038;47.692;9.400;2024-02-21T08:05:14;97316.50;;;9.93;100.00
28927;BME280;16038;47.692;9.400;2024-02-21T08:07:39;97309.50;;;10.81;100.00
28927;BME280;16038;47.692;9.400;2024-02-21T08:10:05;97304.00;;;11.99;86.08
28927;BME280;16038;47.692;9.400;2024-02-21T08:12:33;97306.00;;;12.65;78.35
28927;BME280;16038;47.692;9.400;2024-02-21T08:14:59;97303.38;;;12.29;74.72
28927;BME280;16038;47.692;9.400;2024-02-21T08:17:24;97305.63;;;13.12;72.65
28927;BME280;16038;47.692;9.400;2024-02-21T08:19:49;97300.47;;;13.61;64.15
28927;BME280;16038;47.692;9.400;2024-02-21T08:22:15;97298.03;;;14.16;59.91
28927;BME280;16038;47.692;9.400;2024-02-21T08:24:41;97300.41;;;14.51;58.83
28927;BME280;16038;47.692;9.400;2024-02-21T08:27:06;97296.59;;;12.89;58.82
28927;BME280;16038;47.692;9.400;2024-02-21T08:29:32;97284.56;;;10.26;74.65
28927;BME280;16038;47.692;9.400;2024-02-21T08:31:58;97288.97;;;9.21;78.03
28927;BME280;16038;47.692;9.400;2024-02-21T08:34:23;97288.69;;;9.91;75.23
28927;BME280;16038;47.692;9.400;2024-02-21T08:36:48;97290.59;;;10.92;74.01
28927;BME280;16038;47.692;9.400;2024-02-21T08:39:14;97295.91;;;12.07;68.14
28927;BME280;16038;47.692;9.400;2024-02-21T08:41:42;97300.97;;;12.47;65.52
28927;BME280;16038;47.692;9.400;2024-02-21T08:44:08;97294.94;;;12.61;64.51
28927;BME280;16038;47.692;9.400;2024-02-21T08:46:33;97303.63;;;12.63;64.06
28927;BME280;16038;47.692;9.400;2024-02-21T08:48:59;97304.06;;;12.46;64.13
28927;BME280;16038;47.692;9.400;2024-02-21T08:51:24;97294.66;;;12.23;65.28
28927;BME280;16038;47.692;9.400;2024-02-21T08:53:50;97286.31;;;11.81;68.46
28927;BME280;16038;47.692;9.400;2024-02-21T08:56:17;97292.63;;;12.01;65.60
28927;BME280;16038;47.692;9.400;2024-02-21T08:58:43;97289.78;;;12.36;65.33
28927;BME280;16038;47.692;9.400;2024-02-21T09:01:08;97292.84;;;11.92;64.15
28927;BME280;16038;47.692;9.400;2024-02-21T09:03:37;97288.38;;;11.68;70.17
28927;BME280;16038;47.692;9.400;2024-02-21T09:06:06;97279.41;;;12.49;65.63
28927;BME280;16038;47.692;9.400;2024-02-21T09:08:32;97284.38;;;12.86;62.49
28927;BME280;16038;47.692;9.400;2024-02-21T09:10:59;97280.44;;;11.43;72.55
28927;BME280;16038;47.692;9.400;2024-02-21T09:13:25;97285.00;;;12.33;66.65
28927;BME280;16038;47.692;9.400;2024-02-21T09:15:50;97286.41;;;12.89;63.02
28927;BME280;16038;47.692;9.400;2024-02-21T09:18:16;97282.63;;;13.24;62.16
28927;BME280;16038;47.692;9.400;2024-02-21T09:20:42;97282.34;;;13.06;60.88
28927;BME280;16038;47.692;9.400;2024-02-21T09:23:08;97277.56;;;13.03;61.68
28927;BME280;16038;47.692;9.400;2024-02-21T09:25:33;97266.97;;;12.13;63.97
28927;BME280;16038;47.692;9.400;2024-02-21T09:28:00;97274.13;;;12.60;62.61
28927;BME280;16038;47.692;9.400;2024-02-21T09:30:26;97272.00;;;12.50;62.38
28927;BME280;16038;47.692;9.400;2024-02-21T09:32:51;97264.41;;;12.43;62.22
28927;BME280;16038;47.692;9.400;2024-02-21T09:35:18;97259.19;;;11.95;63.64
28927;BME280;16038;47.692;9.400;2024-02-21T09:37:43;97266.47;;;12.27;63.43
28927;BME280;16038;47.692;9.400;2024-02-21T09:40:09;97253.16;;;12.29;63.35
28927;BME280;16038;47.692;9.400;2024-02-21T09:42:39;97251.94;;;11.32;67.59
28927;BME280;16038;47.692;9.400;2024-02-21T09:45:08;97257.00;;;12.04;67.44
28927;BME280;16038;47.692;9.400;2024-02-21T09:48:25;97249.50;;;12.44;65.72
28927;BME280;16038;47.692;9.400;2024-02-21T09:50:24;97245.13;;;12.39;66.23
28927;BME280;16038;47.692;9.400;2024-02-21T09:52:51;97248.66;;;12.40;65.78
28927;BME280;16038;47.692;9.400;2024-02-21T09:55:18;97251.25;;;12.33;63.86
28927;BME280;16038;47.692;9.400;2024-02-21T09:57:44;97252.59;;;12.19;66.51
28927;BME280;16038;47.692;9.400;2024-02-21T10:00:10;97246.88;;;11.70;68.64
28927;BME280;16038;47.692;9.400;2024-02-21T10:02:35;97243.81;;;11.91;71.84
28927;BME280;16038;47.692;9.400;2024-02-21T10:05:02;97243.19;;;11.62;71.45
28927;BME280;16038;47.692;9.400;2024-02-21T10:07:30;97241.06;;;12.56;69.54
28927;BME280;16038;47.692;9.400;2024-02-21T10:10:02;97240.47;;;12.90;66.96
28927;BME280;16038;47.692;9.400;2024-02-21T10:12:28;97234.81;;;13.32;64.33
28927;BME280;16038;47.692;9.400;2024-02-21T10:15:04;97240.13;;;14.09;61.27
28927;BME280;16038;47.692;9.400;2024-02-21T10:17:32;97244.66;;;14.28;59.24
28927;BME280;16038;47.692;9.400;2024-02-21T10:20:10;97236.34;;;14.24;59.84
28927;BME280;16038;47.692;9.400;2024-02-21T10:22:38;97231.19;;;12.52;65.91
28927;BME280;16038;47.692;9.400;2024-02-21T10:25:11;97224.81;;;12.71;66.45
28927;BME280;16038;47.692;9.400;2024-02-21T10:27:38;97226.19;;;13.34;64.26
28927;BME280;16038;47.692;9.400;2024-02-21T10:30:08;97225.16;;;13.72;63.80
28927;BME280;16038;47.692;9.400;2024-02-21T10:32:49;97228.81;;;13.53;63.18
28927;BME280;16038;47.692;9.400;2024-02-21T10:35:14;97203.25;;;12.03;68.42
28927;BME280;16038;47.692;9.400;2024-02-21T10:37:50;97208.69;;;12.69;69.66
28927;BME280;16038;47.692;9.400;2024-02-21T10:40:22;97203.28;;;12.99;64.56
28927;BME280;16038;47.692;9.400;2024-02-21T10:42:50;97201.81;;;13.32;64.10
28927;BME280;16038;47.692;9.400;2024-02-21T10:45:17;97202.50;;;14.65;58.65
28927;BME280;16038;47.692;9.400;2024-02-21T10:47:48;97201.75;;;14.68;56.26
28927;BME280;16038;47.692;9.400;2024-02-21T10:50:18;97200.06;;;15.08;54.83
28927;BME280;16038;47.692;9.400;2024-02-21T10:52:55;97187.75;;;14.05;58.74
28927;BME280;16038;47.692;9.400;2024-02-21T10:55:32;97183.59;;;14.26;57.64
28927;BME280;16038;47.692;9.400;2024-02-21T10:58:02;97181.78;;;14.00;57.47
28927;BME280;16038;47.692;9.400;2024-02-21T11:00:29;97169.38;;;14.61;56.62
28927;BME280;16038;47.692;9.400;2024-02-21T11:02:57;97156.00;;;14.19;56.80
28927;BME280;16038;47.692;9.400;2024-02-21T11:05:24;97155.28;;;14.25;56.76
28927;BME280;16038;47.692;9.400;2024-02-21T11:07:50;97153.34;;;14.29;55.32
28927;BME280;16038;47.692;9.400;2024-02-21T11:10:23;97148.84;;;14.10;56.43
28927;BME280;16038;47.692;9.400;2024-02-21T11:12:49;97147.75;;;14.22;59.28
28927;BME280;16038;47.692;9.400;2024-02-21T11:15:17;97140.78;;;13.91;61.42
28927;BME280;16038;47.692;9.400;2024-02-21T11:17:53;97136.06;;;13.24;64.16
28927;BME280;16038;47.692;9.400;2024-02-21T11:20:20;97129.09;;;13.03;69.09
28927;BME280;16038;47.692;9.400;2024-02-21T11:22:45;97116.91;;;12.24;71.79
28927;BME280;16038;47.692;9.400;2024-02-21T11:25:21;97110.75;;;12.31;78.72
28927;BME280;16038;47.692;9.400;2024-02-21T11:27:46;97110.78;;;12.84;76.66
28927;BME280;16038;47.692;9.400;2024-02-21T11:30:12;97097.19;;;12.95;73.30
28927;BME280;16038;47.692;9.400;2024-02-21T11:32:40;97101.00;;;13.47;70.15
28927;BME280;16038;47.692;9.400;2024-02-21T11:35:06;97102.47;;;13.41;67.24
28927;BME280;16038;47.692;9.400;2024-02-21T11:37:32;97091.84;;;13.39;67.38
28927;BME280;16038;47.692;9.400;2024-02-21T11:39:59;97080.19;;;13.50;69.76
28927;BME280;16038;47.692;9.400;2024-02-21T11:42:26;97078.16;;;12.29;70.66
28927;BME280;16038;47.692;9.400;2024-02-21T11:44:53;97064.22;;;12.41;73.07
28927;BME280;16038;47.692;9.400;2024-02-21T11:47:18;97066.97;;;12.41;74.03
28927;BME280;16038;47.692;9.400;2024-02-21T11:49:48;97058.31;;;12.66;71.92
28927;BME280;16038;47.692;9.400;2024-02-21T11:52:15;97063.44;;;12.98;67.52
28927;BME280;16038;47.692;9.400;2024-02-21T11:54:42;97051.94;;;13.23;66.47
28927;BME280;16038;47.692;9.400;2024-02-21T11:57:07;97047.59;;;12.57;70.46
28927;BME280;16038;47.692;9.400;2024-02-21T11:59:34;97042.25;;;12.98;71.81
28927;BME280;16038;47.692;9.400;2024-02-21T12:02:00;97035.75;;;12.53;68.65
28927;BME280;16038;47.692;9.400;2024-02-21T12:04:26;97031.66;;;12.70;68.41
28927;BME280;16038;47.692;9.400;2024-02-21T12:06:52;97019.84;;;12.66;67.80
28927;BME280;16038;47.692;9.400;2024-02-21T12:09:18;97017.31;;;12.84;66.58
28927;BME280;16038;47.692;9.400;2024-02-21T12:11:45;97012.44;;;12.70;67.89
28927;BME280;16038;47.692;9.400;2024-02-21T12:14:16;97012.75;;;12.95;67.05
28927;BME280;16038;47.692;9.400;2024-02-21T12:16:41;96998.91;;;13.22;66.47
28927;BME280;16038;47.692;9.400;2024-02-21T12:19:07;97000.38;;;13.50;64.34
28927;BME280;16038;47.692;9.400;2024-02-21T12:21:34;96992.13;;;13.16;65.75
28927;BME280;16038;47.692;9.400;2024-02-21T12:24:31;96987.44;;;13.16;67.39
28927;BME280;16038;47.692;9.400;2024-02-21T12:26:56;96978.47;;;12.86;67.94
28927;BME280;16038;47.692;9.400;2024-02-21T12:29:24;96966.41;;;12.63;68.08
28927;BME280;16038;47.692;9.400;2024-02-21T12:31:51;96968.03;;;12.38;71.96
28927;BME280;16038;47.692;9.400;2024-02-21T12:34:16;96960.50;;;12.61;73.15
28927;BME280;16038;47.692;9.400;2024-02-21T12:36:43;96960.25;;;12.74;69.77
28927;BME280;16038;47.692;9.400;2024-02-21T12:39:10;96959.84;;;12.41;71.97
28927;BME280;16038;47.692;9.400;2024-02-21T12:41:36;96958.03;;;12.87;70.40
28927;BME280;16038;47.692;9.400;2024-02-21T12:44:12;96960.91;;;12.03;71.29
28927;BME280;16038;47.692;9.400;2024-02-21T12:46:38;96956.28;;;11.38;75.08
28927;BME280;16038;47.692;9.400;2024-02-21T12:49:04;96953.91;;;11.59;75.11
28927;BME280;16038;47.692;9.400;2024-02-21T12:51:34;96944.56;;;11.18;78.14
28927;BME280;16038;47.692;9.400;2024-02-21T12:54:00;96945.88;;;10.81;81.26
28927;BME280;16038;47.692;9.400;2024-02-21T12:56:26;96934.91;;;10.62;81.40
28927;BME280;16038;47.692;9.400;2024-02-21T12:58:52;96935.06;;;10.49;82.75